sensor_id;sensor_type;location;lat;lon;timestamp;P1;durP1;ratioP1;P2;durP2;ratioP2
71288;SDS011;59068;52.502;9.860;2023-04-24T00:00:33;0.60;;;0.60;;
71288;SDS011;59068;52.502;9.860;2023-04-24T00:02:58;0.40;;;0.40;;
71288;SDS011;59068;52.502;9.860;2023-04-24T00:05:24;0.77;;;0.77;;
71288;SDS011;59068;52.502;9.860;2023-04-24T00:07:49;0.77;;;0.50;;
71288;SDS011;59068;52.502;9.860;2023-04-24T00:10:18;0.63;;;0.50;;
71288;SDS011;59068;52.502;9.860;2023-04-24T00:12:43;1.13;;;0.70;;
71288;SDS011;59068;52.502;9.860;2023-04-24T00:15:09;1.10;;;0.70;;
71288;SDS011;59068;52.502;9.860;2023-04-24T00:17:35;1.27;;;0.70;;
71288;SDS011;59068;52.502;9.860;2023-04-24T00:20:00;0.53;;;0.50;;
71288;SDS011;59068;52.502;9.860;2023-04-24T00:22:28;1.20;;;0.70;;
71288;SDS011;59068;52.502;9.860;2023-04-24T00:24:54;0.57;;;0.57;;
71288;SDS011;59068;52.502;9.860;2023-04-24T00:27:19;0.70;;;0.43;;
71288;SDS011;59068;52.502;9.860;2023-04-24T00:29:45;0.90;;;0.60;;
71288;SDS011;59068;52.502;9.860;2023-04-24T00:32:10;1.23;;;0.60;;
71288;SDS011;59068;52.502;9.860;2023-04-24T00:34:36;0.60;;;0.50;;
71288;SDS011;59068;52.502;9.860;2023-04-24T00:37:01;0.80;;;0.80;;
71288;SDS011;59068;52.502;9.860;2023-04-24T00:39:26;0.77;;;0.77;;
71288;SDS011;59068;52.502;9.860;2023-04-24T00:41:52;0.60;;;0.60;;
71288;SDS011;59068;52.502;9.860;2023-04-24T00:44:18;0.63;;;0.50;;
71288;SDS011;59068;52.502;9.860;2023-04-24T00:46:43;1.13;;;0.60;;
71288;SDS011;59068;52.502;9.860;2023-04-24T00:49:08;0.63;;;0.50;;
71288;SDS011;59068;52.502;9.860;2023-04-24T00:51:34;0.53;;;0.50;;
71288;SDS011;59068;52.502;9.860;2023-04-24T00:54:00;0.60;;;0.60;;
71288;SDS011;59068;52.502;9.860;2023-04-24T00:56:26;0.77;;;0.50;;
71288;SDS011;59068;52.502;9.860;2023-04-24T00:58:51;0.93;;;0.43;;
71288;SDS011;59068;52.502;9.860;2023-04-24T01:01:20;0.50;;;0.50;;
71288;SDS011;59068;52.502;9.860;2023-04-24T01:03:46;0.90;;;0.47;;
71288;SDS011;59068;52.502;9.860;2023-04-24T01:06:12;0.70;;;0.60;;
71288;SDS011;59068;52.502;9.860;2023-04-24T01:08:37;1.07;;;0.70;;
71288;SDS011;59068;52.502;9.860;2023-04-24T01:11:04;0.60;;;0.60;;
71288;SDS011;59068;52.502;9.860;2023-04-24T01:13:29;0.67;;;0.67;;
71288;SDS011;59068;52.502;9.860;2023-04-24T01:15:56;0.60;;;0.60;;
71288;SDS011;59068;52.502;9.860;2023-04-24T01:18:22;0.60;;;0.60;;
71288;SDS011;59068;52.502;9.860;2023-04-24T01:20:47;1.03;;;0.73;;
71288;SDS011;59068;52.502;9.860;2023-04-24T01:23:14;0.60;;;0.60;;
71288;SDS011;59068;52.502;9.860;2023-04-24T01:25:39;0.50;;;0.50;;
71288;SDS011;59068;52.502;9.860;2023-04-24T01:28:05;0.73;;;0.70;;
71288;SDS011;59068;52.502;9.860;2023-04-24T01:30:31;0.73;;;0.57;;
71288;SDS011;59068;52.502;9.860;2023-04-24T01:32:57;0.70;;;0.70;;
71288;SDS011;59068;52.502;9.860;2023-04-24T01:35:23;0.50;;;0.50;;
71288;SDS011;59068;52.502;9.860;2023-04-24T01:37:49;0.60;;;0.60;;
71288;SDS011;59068;52.502;9.860;2023-04-24T01:40:15;0.80;;;0.60;;
71288;SDS011;59068;52.502;9.860;2023-04-24T01:42:40;1.37;;;0.70;;
71288;SDS011;59068;52.502;9.860;2023-04-24T01:45:06;0.83;;;0.83;;
71288;SDS011;59068;52.502;9.860;2023-04-24T01:47:34;0.90;;;0.70;;
71288;SDS011;59068;52.502;9.860;2023-04-24T01:49:59;0.70;;;0.70;;
71288;SDS011;59068;52.502;9.860;2023-04-24T01:52:25;0.63;;;0.63;;
71288;SDS011;59068;52.502;9.860;2023-04-24T01:54:50;0.60;;;0.60;;
71288;SDS011;59068;52.502;9.860;2023-04-24T01:57:17;0.70;;;0.53;;
71288;SDS011;59068;52.502;9.860;2023-04-24T01:59:42;0.80;;;0.77;;
71288;SDS011;59068;52.502;9.860;2023-04-24T02:02:07;2.73;;;0.80;;
71288;SDS011;59068;52.502;9.860;2023-04-24T02:04:33;0.70;;;0.70;;
71288;SDS011;59068;52.502;9.860;2023-04-24T02:06:58;0.90;;;0.53;;
71288;SDS011;59068;52.502;9.860;2023-04-24T02:09:23;0.43;;;0.43;;
71288;SDS011;59068;52.502;9.860;2023-04-24T02:11:49;0.90;;;0.63;;
71288;SDS011;59068;52.502;9.860;2023-04-24T02:14:15;1.40;;;0.80;;
71288;SDS011;59068;52.502;9.860;2023-04-24T02:16:40;0.40;;;0.40;;
71288;SDS011;59068;52.502;9.860;2023-04-24T02:19:05;0.50;;;0.50;;
71288;SDS011;59068;52.502;9.860;2023-04-24T02:21:31;0.70;;;0.70;;
71288;SDS011;59068;52.502;9.860;2023-04-24T02:23:56;0.50;;;0.50;;
71288;SDS011;59068;52.502;9.860;2023-04-24T02:26:22;0.50;;;0.50;;
71288;SDS011;59068;52.502;9.860;2023-04-24T02:28:47;1.40;;;0.40;;
71288;SDS011;59068;52.502;9.860;2023-04-24T02:31:13;0.50;;;0.50;;
71288;SDS011;59068;52.502;9.860;2023-04-24T02:33:39;0.60;;;0.60;;
71288;SDS011;59068;52.502;9.860;2023-04-24T02:36:04;0.57;;;0.57;;
71288;SDS011;59068;52.502;9.860;2023-04-24T02:38:29;0.43;;;0.43;;
71288;SDS011;59068;52.502;9.860;2023-04-24T02:40:55;0.40;;;0.40;;
71288;SDS011;59068;52.502;9.860;2023-04-24T02:43:20;1.03;;;0.63;;
71288;SDS011;59068;52.502;9.860;2023-04-24T02:45:46;0.60;;;0.60;;
71288;SDS011;59068;52.502;9.860;2023-04-24T02:48:11;0.50;;;0.50;;
71288;SDS011;59068;52.502;9.860;2023-04-24T02:50:36;0.60;;;0.60;;
71288;SDS011;59068;52.502;9.860;2023-04-24T02:53:02;0.47;;;0.47;;
71288;SDS011;59068;52.502;9.860;2023-04-24T02:55:27;0.97;;;0.67;;
71288;SDS011;59068;52.502;9.860;2023-04-24T02:57:53;0.40;;;0.40;;
71288;SDS011;59068;52.502;9.860;2023-04-24T03:00:18;0.87;;;0.50;;
71288;SDS011;59068;52.502;9.860;2023-04-24T03:02:43;0.60;;;0.60;;
71288;SDS011;59068;52.502;9.860;2023-04-24T03:05:09;0.70;;;0.70;;
71288;SDS011;59068;52.502;9.860;2023-04-24T03:07:36;0.70;;;0.60;;
71288;SDS011;59068;52.502;9.860;2023-04-24T03:10:02;0.50;;;0.50;;
71288;SDS011;59068;52.502;9.860;2023-04-24T03:12:27;0.57;;;0.57;;
71288;SDS011;59068;52.502;9.860;2023-04-24T03:14:53;1.03;;;0.70;;
71288;SDS011;59068;52.502;9.860;2023-04-24T03:17:18;0.50;;;0.50;;
71288;SDS011;59068;52.502;9.860;2023-04-24T03:19:43;0.37;;;0.37;;
71288;SDS011;59068;52.502;9.860;2023-04-24T03:22:09;0.60;;;0.60;;
71288;SDS011;59068;52.502;9.860;2023-04-24T03:24:34;1.47;;;0.70;;
71288;SDS011;59068;52.502;9.860;2023-04-24T03:27:00;1.23;;;0.30;;
71288;SDS011;59068;52.502;9.860;2023-04-24T03:29:25;0.53;;;0.53;;
71288;SDS011;59068;52.502;9.860;2023-04-24T03:31:51;0.40;;;0.40;;
71288;SDS011;59068;52.502;9.860;2023-04-24T03:34:16;0.67;;;0.50;;
71288;SDS011;59068;52.502;9.860;2023-04-24T03:36:41;0.30;;;0.30;;
71288;SDS011;59068;52.502;9.860;2023-04-24T03:39:07;0.70;;;0.40;;
71288;SDS011;59068;52.502;9.860;2023-04-24T03:41:32;0.87;;;0.30;;
71288;SDS011;59068;52.502;9.860;2023-04-24T03:43:58;0.87;;;0.50;;
71288;SDS011;59068;52.502;9.860;2023-04-24T03:46:23;1.07;;;0.40;;
71288;SDS011;59068;52.502;9.860;2023-04-24T03:48:49;0.50;;;0.50;;
71288;SDS011;59068;52.502;9.860;2023-04-24T03:51:14;0.60;;;0.40;;
71288;SDS011;59068;52.502;9.860;2023-04-24T03:53:39;0.47;;;0.47;;
71288;SDS011;59068;52.502;9.860;2023-04-24T03:56:05;0.33;;;0.33;;
71288;SDS011;59068;52.502;9.860;2023-04-24T03:58:30;0.87;;;0.40;;
71288;SDS011;59068;52.502;9.860;2023-04-24T04:00:56;0.43;;;0.43;;
71288;SDS011;59068;52.502;9.860;2023-04-24T04:03:23;0.90;;;0.87;;
71288;SDS011;59068;52.502;9.860;2023-04-24T04:05:48;0.93;;;0.67;;
71288;SDS011;59068;52.502;9.860;2023-04-24T04:08:13;1.40;;;0.60;;
71288;SDS011;59068;52.502;9.860;2023-04-24T04:10:39;0.87;;;0.50;;
71288;SDS011;59068;52.502;9.860;2023-04-24T04:13:05;0.90;;;0.50;;
71288;SDS011;59068;52.502;9.860;2023-04-24T04:15:31;1.67;;;0.80;;
71288;SDS011;59068;52.502;9.860;2023-04-24T04:17:56;1.13;;;0.40;;
71288;SDS011;59068;52.502;9.860;2023-04-24T04:20:22;0.40;;;0.30;;
71288;SDS011;59068;52.502;9.860;2023-04-24T04:22:47;1.03;;;0.60;;
71288;SDS011;59068;52.502;9.860;2023-04-24T04:25:13;0.50;;;0.50;;
71288;SDS011;59068;52.502;9.860;2023-04-24T04:27:38;0.97;;;0.43;;
71288;SDS011;59068;52.502;9.860;2023-04-24T04:30:04;0.50;;;0.50;;
71288;SDS011;59068;52.502;9.860;2023-04-24T04:32:31;1.10;;;0.40;;
71288;SDS011;59068;52.502;9.860;2023-04-24T04:34:58;0.60;;;0.50;;
71288;SDS011;59068;52.502;9.860;2023-04-24T04:37:27;0.43;;;0.43;;
71288;SDS011;59068;52.502;9.860;2023-04-24T04:39:59;0.67;;;0.40;;
71288;SDS011;59068;52.502;9.860;2023-04-24T04:42:25;0.73;;;0.50;;
71288;SDS011;59068;52.502;9.860;2023-04-24T04:44:52;1.10;;;0.60;;
71288;SDS011;59068;52.502;9.860;2023-04-24T04:47:17;0.40;;;0.40;;
71288;SDS011;59068;52.502;9.860;2023-04-24T04:49:43;1.13;;;1.03;;
71288;SDS011;59068;52.502;9.860;2023-04-24T04:52:09;1.37;;;0.60;;
71288;SDS011;59068;52.502;9.860;2023-04-24T04:54:34;0.50;;;0.40;;
71288;SDS011;59068;52.502;9.860;2023-04-24T04:57:00;0.80;;;0.50;;
71288;SDS011;59068;52.502;9.860;2023-04-24T04:59:25;0.30;;;0.30;;
71288;SDS011;59068;52.502;9.860;2023-04-24T05:01:51;0.50;;;0.50;;
71288;SDS011;59068;52.502;9.860;2023-04-24T05:04:17;1.47;;;0.50;;
71288;SDS011;59068;52.502;9.860;2023-04-24T05:06:42;1.00;;;0.90;;
71288;SDS011;59068;52.502;9.860;2023-04-24T05:09:08;0.50;;;0.50;;
71288;SDS011;59068;52.502;9.860;2023-04-24T05:11:33;0.60;;;0.60;;
71288;SDS011;59068;52.502;9.860;2023-04-24T05:13:58;0.50;;;0.50;;
71288;SDS011;59068;52.502;9.860;2023-04-24T05:16:24;0.70;;;0.63;;
71288;SDS011;59068;52.502;9.860;2023-04-24T05:18:49;0.43;;;0.40;;
71288;SDS011;59068;52.502;9.860;2023-04-24T05:21:14;0.70;;;0.70;;
71288;SDS011;59068;52.502;9.860;2023-04-24T05:23:40;1.70;;;0.77;;
71288;SDS011;59068;52.502;9.860;2023-04-24T05:26:05;0.80;;;0.70;;
71288;SDS011;59068;52.502;9.860;2023-04-24T05:28:31;0.53;;;0.53;;
71288;SDS011;59068;52.502;9.860;2023-04-24T05:30:56;0.90;;;0.50;;
71288;SDS011;59068;52.502;9.860;2023-04-24T05:33:21;0.60;;;0.60;;
71288;SDS011;59068;52.502;9.860;2023-04-24T05:35:47;0.97;;;0.60;;
71288;SDS011;59068;52.502;9.860;2023-04-24T05:38:13;1.47;;;0.70;;
71288;SDS011;59068;52.502;9.860;2023-04-24T05:40:39;0.80;;;0.70;;
71288;SDS011;59068;52.502;9.860;2023-04-24T05:43:04;0.60;;;0.60;;
71288;SDS011;59068;52.502;9.860;2023-04-24T05:45:30;0.60;;;0.60;;
71288;SDS011;59068;52.502;9.860;2023-04-24T05:47:55;0.67;;;0.50;;
71288;SDS011;59068;52.502;9.860;2023-04-24T05:50:21;2.10;;;0.70;;
71288;SDS011;59068;52.502;9.860;2023-04-24T05:52:46;0.60;;;0.60;;
71288;SDS011;59068;52.502;9.860;2023-04-24T05:55:11;0.50;;;0.50;;
71288;SDS011;59068;52.502;9.860;2023-04-24T05:57:37;1.10;;;0.60;;
71288;SDS011;59068;52.502;9.860;2023-04-24T06:00:02;0.60;;;0.60;;
71288;SDS011;59068;52.502;9.860;2023-04-24T06:02:29;0.70;;;0.70;;
71288;SDS011;59068;52.502;9.860;2023-04-24T06:04:57;1.60;;;0.70;;
71288;SDS011;59068;52.502;9.860;2023-04-24T06:07:24;1.80;;;0.83;;
71288;SDS011;59068;52.502;9.860;2023-04-24T06:09:51;1.37;;;0.80;;
71288;SDS011;59068;52.502;9.860;2023-04-24T06:12:16;0.50;;;0.50;;
71288;SDS011;59068;52.502;9.860;2023-04-24T06:14:41;0.60;;;0.60;;
71288;SDS011;59068;52.502;9.860;2023-04-24T06:17:07;0.90;;;0.70;;
71288;SDS011;59068;52.502;9.860;2023-04-24T06:19:32;1.10;;;1.00;;
71288;SDS011;59068;52.502;9.860;2023-04-24T06:21:57;0.73;;;0.70;;
71288;SDS011;59068;52.502;9.860;2023-04-24T06:24:26;1.23;;;0.90;;
71288;SDS011;59068;52.502;9.860;2023-04-24T06:26:52;1.63;;;1.10;;
71288;SDS011;59068;52.502;9.860;2023-04-24T06:29:17;0.93;;;0.80;;
71288;SDS011;59068;52.502;9.860;2023-04-24T06:31:43;0.80;;;0.70;;
71288;SDS011;59068;52.502;9.860;2023-04-24T06:34:08;0.80;;;0.80;;
71288;SDS011;59068;52.502;9.860;2023-04-24T06:36:33;1.30;;;1.00;;
71288;SDS011;59068;52.502;9.860;2023-04-24T06:39:00;1.30;;;1.00;;
71288;SDS011;59068;52.502;9.860;2023-04-24T06:41:26;1.23;;;1.13;;
71288;SDS011;59068;52.502;9.860;2023-04-24T06:43:51;2.47;;;1.20;;
71288;SDS011;59068;52.502;9.860;2023-04-24T06:46:16;1.17;;;1.07;;
71288;SDS011;59068;52.502;9.860;2023-04-24T06:48:42;1.00;;;1.00;;
71288;SDS011;59068;52.502;9.860;2023-04-24T06:51:07;4.67;;;1.60;;
71288;SDS011;59068;52.502;9.860;2023-04-24T06:53:33;1.80;;;0.93;;
71288;SDS011;59068;52.502;9.860;2023-04-24T06:55:58;1.03;;;1.03;;
71288;SDS011;59068;52.502;9.860;2023-04-24T06:58:24;1.97;;;1.30;;
71288;SDS011;59068;52.502;9.860;2023-04-24T07:00:50;1.97;;;1.83;;
71288;SDS011;59068;52.502;9.860;2023-04-24T07:03:15;2.00;;;1.90;;
71288;SDS011;59068;52.502;9.860;2023-04-24T07:05:41;2.53;;;1.93;;
71288;SDS011;59068;52.502;9.860;2023-04-24T07:08:06;3.33;;;2.57;;
71288;SDS011;59068;52.502;9.860;2023-04-24T07:10:32;2.40;;;2.30;;
71288;SDS011;59068;52.502;9.860;2023-04-24T07:13:00;4.23;;;2.50;;
71288;SDS011;59068;52.502;9.860;2023-04-24T07:15:26;2.60;;;2.47;;
71288;SDS011;59068;52.502;9.860;2023-04-24T07:17:51;4.97;;;2.77;;
71288;SDS011;59068;52.502;9.860;2023-04-24T07:20:17;3.07;;;2.87;;
71288;SDS011;59068;52.502;9.860;2023-04-24T07:22:42;3.30;;;2.87;;
71288;SDS011;59068;52.502;9.860;2023-04-24T07:25:08;3.30;;;3.00;;
71288;SDS011;59068;52.502;9.860;2023-04-24T07:27:34;4.23;;;3.30;;
71288;SDS011;59068;52.502;9.860;2023-04-24T07:30:01;3.70;;;3.13;;
71288;SDS011;59068;52.502;9.860;2023-04-24T07:32:26;4.30;;;4.00;;
71288;SDS011;59068;52.502;9.860;2023-04-24T07:34:52;4.30;;;4.00;;
71288;SDS011;59068;52.502;9.860;2023-04-24T07:37:17;4.83;;;4.43;;
71288;SDS011;59068;52.502;9.860;2023-04-24T07:39:42;4.97;;;4.57;;
71288;SDS011;59068;52.502;9.860;2023-04-24T07:42:08;4.80;;;4.40;;
71288;SDS011;59068;52.502;9.860;2023-04-24T07:44:33;4.97;;;4.57;;
71288;SDS011;59068;52.502;9.860;2023-04-24T07:46:58;4.27;;;3.87;;
71288;SDS011;59068;52.502;9.860;2023-04-24T07:49:24;3.63;;;3.33;;
71288;SDS011;59068;52.502;9.860;2023-04-24T07:51:50;4.10;;;3.80;;
71288;SDS011;59068;52.502;9.860;2023-04-24T07:54:15;4.27;;;3.87;;
71288;SDS011;59068;52.502;9.860;2023-04-24T07:56:41;6.23;;;4.90;;
71288;SDS011;59068;52.502;9.860;2023-04-24T07:59:08;5.40;;;4.53;;
71288;SDS011;59068;52.502;9.860;2023-04-24T08:01:35;4.90;;;4.40;;
71288;SDS011;59068;52.502;9.860;2023-04-24T08:04:00;4.10;;;3.80;;
71288;SDS011;59068;52.502;9.860;2023-04-24T08:06:26;4.53;;;4.13;;
71288;SDS011;59068;52.502;9.860;2023-04-24T08:08:55;4.30;;;3.90;;
71288;SDS011;59068;52.502;9.860;2023-04-24T08:11:21;5.90;;;4.93;;
71288;SDS011;59068;52.502;9.860;2023-04-24T08:13:46;4.70;;;4.30;;
71288;SDS011;59068;52.502;9.860;2023-04-24T08:16:11;5.47;;;5.00;;
71288;SDS011;59068;52.502;9.860;2023-04-24T08:18:37;5.50;;;5.00;;
71288;SDS011;59068;52.502;9.860;2023-04-24T08:21:02;6.30;;;5.70;;
71288;SDS011;59068;52.502;9.860;2023-04-24T08:23:28;7.00;;;6.40;;
71288;SDS011;59068;52.502;9.860;2023-04-24T08:25:54;8.23;;;6.10;;
71288;SDS011;59068;52.502;9.860;2023-04-24T08:28:20;6.43;;;5.83;;
71288;SDS011;59068;52.502;9.860;2023-04-24T08:30:45;7.97;;;5.93;;
71288;SDS011;59068;52.502;9.860;2023-04-24T08:33:12;7.30;;;6.33;;
71288;SDS011;59068;52.502;9.860;2023-04-24T08:35:38;8.47;;;6.80;;
71288;SDS011;59068;52.502;9.860;2023-04-24T08:38:03;7.30;;;6.70;;
71288;SDS011;59068;52.502;9.860;2023-04-24T08:40:29;9.17;;;6.60;;
71288;SDS011;59068;52.502;9.860;2023-04-24T08:42:56;6.67;;;6.17;;
71288;SDS011;59068;52.502;9.860;2023-04-24T08:45:22;7.73;;;6.93;;
71288;SDS011;59068;52.502;9.860;2023-04-24T08:47:48;7.03;;;6.43;;
71288;SDS011;59068;52.502;9.860;2023-04-24T08:50:14;7.40;;;6.50;;
71288;SDS011;59068;52.502;9.860;2023-04-24T08:52:41;7.23;;;6.33;;
71288;SDS011;59068;52.502;9.860;2023-04-24T08:55:07;6.23;;;5.60;;
71288;SDS011;59068;52.502;9.860;2023-04-24T08:57:32;7.23;;;6.57;;
71288;SDS011;59068;52.502;9.860;2023-04-24T08:59:58;6.93;;;6.23;;
71288;SDS011;59068;52.502;9.860;2023-04-24T09:02:24;6.30;;;5.70;;
71288;SDS011;59068;52.502;9.860;2023-04-24T09:04:50;6.07;;;5.47;;
71288;SDS011;59068;52.502;9.860;2023-04-24T09:07:16;6.17;;;5.60;;
71288;SDS011;59068;52.502;9.860;2023-04-24T09:09:43;5.63;;;5.07;;
71288;SDS011;59068;52.502;9.860;2023-04-24T09:12:09;5.70;;;4.90;;
71288;SDS011;59068;52.502;9.860;2023-04-24T09:14:35;5.37;;;4.87;;
71288;SDS011;59068;52.502;9.860;2023-04-24T09:17:04;4.67;;;4.30;;
71288;SDS011;59068;52.502;9.860;2023-04-24T09:19:31;4.10;;;3.80;;
71288;SDS011;59068;52.502;9.860;2023-04-24T09:21:56;4.50;;;4.10;;
71288;SDS011;59068;52.502;9.860;2023-04-24T09:24:21;4.70;;;4.30;;
71288;SDS011;59068;52.502;9.860;2023-04-24T09:26:57;4.87;;;4.00;;
71288;SDS011;59068;52.502;9.860;2023-04-24T09:29:23;3.97;;;3.60;;
71288;SDS011;59068;52.502;9.860;2023-04-24T09:31:49;4.30;;;3.57;;
71288;SDS011;59068;52.502;9.860;2023-04-24T09:34:18;4.77;;;3.83;;
71288;SDS011;59068;52.502;9.860;2023-04-24T09:36:46;4.27;;;3.97;;
71288;SDS011;59068;52.502;9.860;2023-04-24T09:39:12;4.30;;;3.90;;
71288;SDS011;59068;52.502;9.860;2023-04-24T09:44:13;3.83;;;3.50;;
71288;SDS011;59068;52.502;9.860;2023-04-24T09:46:44;4.33;;;3.40;;
71288;SDS011;59068;52.502;9.860;2023-04-24T09:49:14;3.50;;;3.30;;
71288;SDS011;59068;52.502;9.860;2023-04-24T09:51:41;3.10;;;2.80;;
71288;SDS011;59068;52.502;9.860;2023-04-24T09:54:13;2.43;;;2.33;;
71288;SDS011;59068;52.502;9.860;2023-04-24T09:56:44;4.37;;;2.70;;
71288;SDS011;59068;52.502;9.860;2023-04-24T09:59:11;3.37;;;3.03;;
71288;SDS011;59068;52.502;9.860;2023-04-24T10:01:38;3.30;;;3.00;;
71288;SDS011;59068;52.502;9.860;2023-04-24T10:04:06;3.10;;;2.90;;
71288;SDS011;59068;52.502;9.860;2023-04-24T10:06:40;4.20;;;2.70;;
71288;SDS011;59068;52.502;9.860;2023-04-24T10:09:07;3.43;;;3.13;;
71288;SDS011;59068;52.502;9.860;2023-04-24T10:11:33;2.80;;;2.60;;
71288;SDS011;59068;52.502;9.860;2023-04-24T10:13:59;3.33;;;3.00;;
71288;SDS011;59068;52.502;9.860;2023-04-24T10:16:24;3.10;;;2.80;;
71288;SDS011;59068;52.502;9.860;2023-04-24T10:18:52;3.20;;;2.90;;
71288;SDS011;59068;52.502;9.860;2023-04-24T10:21:17;2.87;;;2.67;;
71288;SDS011;59068;52.502;9.860;2023-04-24T10:23:43;4.30;;;3.20;;
71288;SDS011;59068;52.502;9.860;2023-04-24T10:26:10;2.83;;;2.63;;
71288;SDS011;59068;52.502;9.860;2023-04-24T10:28:42;2.80;;;2.60;;
71288;SDS011;59068;52.502;9.860;2023-04-24T10:31:12;2.73;;;2.53;;
71288;SDS011;59068;52.502;9.860;2023-04-24T10:33:40;3.17;;;2.90;;
71288;SDS011;59068;52.502;9.860;2023-04-24T10:36:08;3.40;;;3.07;;
71288;SDS011;59068;52.502;9.860;2023-04-24T10:38:35;3.00;;;2.70;;
71288;SDS011;59068;52.502;9.860;2023-04-24T10:41:08;2.97;;;2.73;;
71288;SDS011;59068;52.502;9.860;2023-04-24T10:43:41;2.90;;;2.70;;
71288;SDS011;59068;52.502;9.860;2023-04-24T10:46:07;7.27;;;3.43;;
71288;SDS011;59068;52.502;9.860;2023-04-24T10:48:35;6.30;;;3.07;;
71288;SDS011;59068;52.502;9.860;2023-04-24T10:51:00;2.67;;;2.47;;
71288;SDS011;59068;52.502;9.860;2023-04-24T10:53:29;2.50;;;2.30;;
71288;SDS011;59068;52.502;9.860;2023-04-24T10:55:59;2.40;;;2.30;;
71288;SDS011;59068;52.502;9.860;2023-04-24T11:01:09;2.80;;;2.60;;
71288;SDS011;59068;52.502;9.860;2023-04-24T11:03:58;2.67;;;2.47;;
71288;SDS011;59068;52.502;9.860;2023-04-24T11:06:28;2.60;;;2.40;;
71288;SDS011;59068;52.502;9.860;2023-04-24T11:08:58;2.40;;;2.23;;
71288;SDS011;59068;52.502;9.860;2023-04-24T11:11:31;2.23;;;2.10;;
71288;SDS011;59068;52.502;9.860;2023-04-24T11:19:02;2.30;;;2.10;;
71288;SDS011;59068;52.502;9.860;2023-04-24T11:21:39;1.70;;;1.60;;
71288;SDS011;59068;52.502;9.860;2023-04-24T11:26:53;1.80;;;1.50;;
71288;SDS011;59068;52.502;9.860;2023-04-24T11:29:37;1.70;;;1.60;;
71288;SDS011;59068;52.502;9.860;2023-04-24T11:32:34;1.37;;;1.33;;
71288;SDS011;59068;52.502;9.860;2023-04-24T11:37:44;1.90;;;1.70;;
71288;SDS011;59068;52.502;9.860;2023-04-24T11:40:15;2.10;;;1.90;;
71288;SDS011;59068;52.502;9.860;2023-04-24T11:42:42;4.27;;;1.60;;
71288;SDS011;59068;52.502;9.860;2023-04-24T11:45:12;3.40;;;1.80;;
71288;SDS011;59068;52.502;9.860;2023-04-24T11:47:42;1.70;;;1.60;;
71288;SDS011;59068;52.502;9.860;2023-04-24T11:50:08;2.00;;;1.50;;
71288;SDS011;59068;52.502;9.860;2023-04-24T11:52:39;1.67;;;1.57;;
71288;SDS011;59068;52.502;9.860;2023-04-24T11:57:42;1.73;;;1.63;;
71288;SDS011;59068;52.502;9.860;2023-04-24T12:00:14;1.53;;;1.43;;
71288;SDS011;59068;52.502;9.860;2023-04-24T12:02:43;1.20;;;1.20;;
71288;SDS011;59068;52.502;9.860;2023-04-24T12:05:09;1.60;;;1.50;;
71288;SDS011;59068;52.502;9.860;2023-04-24T12:07:40;1.27;;;1.17;;
71288;SDS011;59068;52.502;9.860;2023-04-24T12:10:09;2.10;;;1.10;;
71288;SDS011;59068;52.502;9.860;2023-04-24T12:12:35;0.77;;;0.77;;
71288;SDS011;59068;52.502;9.860;2023-04-24T12:15:00;1.70;;;0.60;;
71288;SDS011;59068;52.502;9.860;2023-04-24T12:17:30;1.17;;;0.80;;
71288;SDS011;59068;52.502;9.860;2023-04-24T12:20:00;0.60;;;0.60;;
71288;SDS011;59068;52.502;9.860;2023-04-24T12:22:27;0.67;;;0.67;;
71288;SDS011;59068;52.502;9.860;2023-04-24T12:25:02;0.83;;;0.83;;
71288;SDS011;59068;52.502;9.860;2023-04-24T12:27:32;0.80;;;0.80;;
71288;SDS011;59068;52.502;9.860;2023-04-24T12:30:02;0.80;;;0.60;;
71288;SDS011;59068;52.502;9.860;2023-04-24T12:32:28;0.80;;;0.80;;
71288;SDS011;59068;52.502;9.860;2023-04-24T12:34:54;0.90;;;0.90;;
71288;SDS011;59068;52.502;9.860;2023-04-24T12:37:20;2.13;;;1.50;;
71288;SDS011;59068;52.502;9.860;2023-04-24T12:40:07;1.10;;;1.00;;
71288;SDS011;59068;52.502;9.860;2023-04-24T12:42:33;1.10;;;1.10;;
71288;SDS011;59068;52.502;9.860;2023-04-24T12:45:03;1.33;;;1.23;;
71288;SDS011;59068;52.502;9.860;2023-04-24T12:47:30;0.93;;;0.93;;
71288;SDS011;59068;52.502;9.860;2023-04-24T12:49:56;1.07;;;1.00;;
71288;SDS011;59068;52.502;9.860;2023-04-24T12:52:22;0.77;;;0.77;;
71288;SDS011;59068;52.502;9.860;2023-04-24T12:54:49;2.43;;;1.00;;
71288;SDS011;59068;52.502;9.860;2023-04-24T12:57:17;1.10;;;1.10;;
71288;SDS011;59068;52.502;9.860;2023-04-24T12:59:43;1.40;;;1.33;;
71288;SDS011;59068;52.502;9.860;2023-04-24T13:02:08;1.67;;;1.20;;
71288;SDS011;59068;52.502;9.860;2023-04-24T13:04:35;1.13;;;1.07;;
71288;SDS011;59068;52.502;9.860;2023-04-24T13:07:00;1.30;;;1.20;;
71288;SDS011;59068;52.502;9.860;2023-04-24T13:09:25;1.40;;;1.27;;
71288;SDS011;59068;52.502;9.860;2023-04-24T13:11:51;1.30;;;1.20;;
71288;SDS011;59068;52.502;9.860;2023-04-24T13:14:16;1.30;;;1.20;;
71288;SDS011;59068;52.502;9.860;2023-04-24T13:16:42;1.07;;;0.97;;
71288;SDS011;59068;52.502;9.860;2023-04-24T13:19:07;1.27;;;1.13;;
71288;SDS011;59068;52.502;9.860;2023-04-24T13:21:32;1.27;;;1.00;;
71288;SDS011;59068;52.502;9.860;2023-04-24T13:23:57;1.70;;;1.60;;
71288;SDS011;59068;52.502;9.860;2023-04-24T13:26:23;1.50;;;1.40;;
71288;SDS011;59068;52.502;9.860;2023-04-24T13:28:49;1.30;;;1.30;;
71288;SDS011;59068;52.502;9.860;2023-04-24T13:31:15;2.13;;;1.97;;
71288;SDS011;59068;52.502;9.860;2023-04-24T13:33:40;1.80;;;1.70;;
71288;SDS011;59068;52.502;9.860;2023-04-24T13:36:05;1.50;;;1.33;;
71288;SDS011;59068;52.502;9.860;2023-04-24T13:38:31;1.60;;;1.50;;
71288;SDS011;59068;52.502;9.860;2023-04-24T13:40:56;1.83;;;1.73;;
71288;SDS011;59068;52.502;9.860;2023-04-24T13:43:22;1.40;;;1.40;;
71288;SDS011;59068;52.502;9.860;2023-04-24T13:45:47;1.57;;;1.47;;
71288;SDS011;59068;52.502;9.860;2023-04-24T13:48:13;1.40;;;1.30;;
71288;SDS011;59068;52.502;9.860;2023-04-24T13:50:40;1.10;;;1.10;;
71288;SDS011;59068;52.502;9.860;2023-04-24T13:53:06;1.70;;;1.60;;
71288;SDS011;59068;52.502;9.860;2023-04-24T13:55:32;1.60;;;1.50;;
71288;SDS011;59068;52.502;9.860;2023-04-24T13:57:57;1.33;;;1.30;;
71288;SDS011;59068;52.502;9.860;2023-04-24T14:00:23;1.30;;;1.30;;
71288;SDS011;59068;52.502;9.860;2023-04-24T14:02:48;1.03;;;1.00;;
71288;SDS011;59068;52.502;9.860;2023-04-24T14:05:14;1.20;;;1.10;;
71288;SDS011;59068;52.502;9.860;2023-04-24T14:07:40;0.60;;;0.60;;
71288;SDS011;59068;52.502;9.860;2023-04-24T14:10:06;0.80;;;0.80;;
71288;SDS011;59068;52.502;9.860;2023-04-24T14:12:32;1.00;;;1.00;;
71288;SDS011;59068;52.502;9.860;2023-04-24T14:14:58;1.00;;;1.00;;
71288;SDS011;59068;52.502;9.860;2023-04-24T14:17:24;1.10;;;1.00;;
71288;SDS011;59068;52.502;9.860;2023-04-24T14:19:49;0.90;;;0.73;;
71288;SDS011;59068;52.502;9.860;2023-04-24T14:22:16;1.20;;;1.07;;
71288;SDS011;59068;52.502;9.860;2023-04-24T14:24:42;1.40;;;1.10;;
71288;SDS011;59068;52.502;9.860;2023-04-24T14:27:07;1.67;;;1.17;;
71288;SDS011;59068;52.502;9.860;2023-04-24T14:29:32;1.10;;;0.90;;
71288;SDS011;59068;52.502;9.860;2023-04-24T14:31:58;0.80;;;0.80;;
71288;SDS011;59068;52.502;9.860;2023-04-24T14:34:23;0.60;;;0.60;;
71288;SDS011;59068;52.502;9.860;2023-04-24T14:36:49;0.77;;;0.77;;
71288;SDS011;59068;52.502;9.860;2023-04-24T14:39:14;1.57;;;0.90;;
71288;SDS011;59068;52.502;9.860;2023-04-24T14:41:39;1.53;;;1.07;;
71288;SDS011;59068;52.502;9.860;2023-04-24T14:44:05;1.27;;;1.17;;
71288;SDS011;59068;52.502;9.860;2023-04-24T14:46:31;1.43;;;1.33;;
71288;SDS011;59068;52.502;9.860;2023-04-24T14:48:56;1.40;;;1.20;;
71288;SDS011;59068;52.502;9.860;2023-04-24T14:51:22;1.67;;;1.57;;
71288;SDS011;59068;52.502;9.860;2023-04-24T14:53:48;2.60;;;1.40;;
71288;SDS011;59068;52.502;9.860;2023-04-24T14:56:13;1.77;;;1.67;;
71288;SDS011;59068;52.502;9.860;2023-04-24T14:58:39;2.50;;;2.30;;
71288;SDS011;59068;52.502;9.860;2023-04-24T15:01:05;2.30;;;1.67;;